sensor_id;sensor_type;location;lat;lon;timestamp;P1;durP1;ratioP1;P2;durP2;ratioP2
10216;SDS011;5152;59.674;16.838;2023-02-28T00:00:12;1.83;;;1.10;;
10216;SDS011;5152;59.674;16.838;2023-02-28T00:02:42;0.80;;;0.80;;
10216;SDS011;5152;59.674;16.838;2023-02-28T00:05:10;0.93;;;0.73;;
10216;SDS011;5152;59.674;16.838;2023-02-28T00:07:38;2.10;;;0.90;;
10216;SDS011;5152;59.674;16.838;2023-02-28T00:10:05;0.60;;;0.60;;
10216;SDS011;5152;59.674;16.838;2023-02-28T00:12:34;1.40;;;1.00;;
10216;SDS011;5152;59.674;16.838;2023-02-28T00:15:02;0.87;;;0.80;;
10216;SDS011;5152;59.674;16.838;2023-02-28T00:17:32;1.00;;;0.90;;
10216;SDS011;5152;59.674;16.838;2023-02-28T00:20:00;1.00;;;0.80;;
10216;SDS011;5152;59.674;16.838;2023-02-28T00:22:37;0.47;;;0.47;;
10216;SDS011;5152;59.674;16.838;2023-02-28T00:25:05;0.40;;;0.40;;
10216;SDS011;5152;59.674;16.838;2023-02-28T00:27:33;1.50;;;0.73;;
10216;SDS011;5152;59.674;16.838;2023-02-28T00:29:59;0.63;;;0.63;;
10216;SDS011;5152;59.674;16.838;2023-02-28T00:32:26;0.70;;;0.70;;
10216;SDS011;5152;59.674;16.838;2023-02-28T00:34:53;0.70;;;0.63;;
10216;SDS011;5152;59.674;16.838;2023-02-28T00:37:21;0.90;;;0.50;;
10216;SDS011;5152;59.674;16.838;2023-02-28T00:39:48;0.93;;;0.83;;
10216;SDS011;5152;59.674;16.838;2023-02-28T00:42:14;1.33;;;0.90;;
10216;SDS011;5152;59.674;16.838;2023-02-28T00:44:41;1.43;;;0.90;;
10216;SDS011;5152;59.674;16.838;2023-02-28T00:47:08;5.33;;;0.90;;
10216;SDS011;5152;59.674;16.838;2023-02-28T00:49:35;0.80;;;0.70;;
10216;SDS011;5152;59.674;16.838;2023-02-28T00:52:02;1.63;;;1.00;;
10216;SDS011;5152;59.674;16.838;2023-02-28T00:54:30;0.70;;;0.70;;
10216;SDS011;5152;59.674;16.838;2023-02-28T00:56:57;0.70;;;0.70;;
10216;SDS011;5152;59.674;16.838;2023-02-28T00:59:24;0.50;;;0.50;;
10216;SDS011;5152;59.674;16.838;2023-02-28T01:01:51;0.67;;;0.60;;
10216;SDS011;5152;59.674;16.838;2023-02-28T01:04:18;0.60;;;0.40;;
10216;SDS011;5152;59.674;16.838;2023-02-28T01:06:44;1.77;;;0.70;;
10216;SDS011;5152;59.674;16.838;2023-02-28T01:09:11;0.50;;;0.50;;
10216;SDS011;5152;59.674;16.838;2023-02-28T01:11:39;0.93;;;0.50;;
10216;SDS011;5152;59.674;16.838;2023-02-28T01:14:09;0.30;;;0.30;;
10216;SDS011;5152;59.674;16.838;2023-02-28T01:16:38;0.60;;;0.60;;
10216;SDS011;5152;59.674;16.838;2023-02-28T01:19:05;0.60;;;0.50;;
10216;SDS011;5152;59.674;16.838;2023-02-28T01:21:32;0.60;;;0.30;;
10216;SDS011;5152;59.674;16.838;2023-02-28T01:23:59;0.30;;;0.30;;
10216;SDS011;5152;59.674;16.838;2023-02-28T01:26:26;0.57;;;0.53;;
10216;SDS011;5152;59.674;16.838;2023-02-28T01:28:54;0.60;;;0.60;;
10216;SDS011;5152;59.674;16.838;2023-02-28T01:31:21;0.40;;;0.40;;
10216;SDS011;5152;59.674;16.838;2023-02-28T01:33:49;0.77;;;0.50;;
10216;SDS011;5152;59.674;16.838;2023-02-28T01:36:17;0.67;;;0.50;;
10216;SDS011;5152;59.674;16.838;2023-02-28T01:38:44;0.40;;;0.30;;
10216;SDS011;5152;59.674;16.838;2023-02-28T01:41:14;0.87;;;0.57;;
10216;SDS011;5152;59.674;16.838;2023-02-28T01:43:58;0.57;;;0.47;;
10216;SDS011;5152;59.674;16.838;2023-02-28T01:46:28;0.40;;;0.40;;
10216;SDS011;5152;59.674;16.838;2023-02-28T01:48:56;0.73;;;0.40;;
10216;SDS011;5152;59.674;16.838;2023-02-28T01:51:29;2.30;;;0.70;;
10216;SDS011;5152;59.674;16.838;2023-02-28T01:53:58;0.70;;;0.60;;
10216;SDS011;5152;59.674;16.838;2023-02-28T01:56:27;0.50;;;0.50;;
10216;SDS011;5152;59.674;16.838;2023-02-28T01:58:55;0.73;;;0.60;;
10216;SDS011;5152;59.674;16.838;2023-02-28T02:01:24;0.37;;;0.37;;
10216;SDS011;5152;59.674;16.838;2023-02-28T02:03:54;0.90;;;0.60;;
10216;SDS011;5152;59.674;16.838;2023-02-28T02:06:22;0.60;;;0.53;;
10216;SDS011;5152;59.674;16.838;2023-02-28T02:08:49;0.70;;;0.60;;
10216;SDS011;5152;59.674;16.838;2023-02-28T02:11:17;0.50;;;0.50;;
10216;SDS011;5152;59.674;16.838;2023-02-28T02:14:06;2.57;;;0.50;;
10216;SDS011;5152;59.674;16.838;2023-02-28T02:16:42;0.40;;;0.40;;
10216;SDS011;5152;59.674;16.838;2023-02-28T02:19:19;0.70;;;0.47;;
10216;SDS011;5152;59.674;16.838;2023-02-28T02:22:07;0.40;;;0.40;;
10216;SDS011;5152;59.674;16.838;2023-02-28T02:24:55;0.50;;;0.40;;
10216;SDS011;5152;59.674;16.838;2023-02-28T02:27:32;0.30;;;0.30;;
10216;SDS011;5152;59.674;16.838;2023-02-28T02:30:20;0.47;;;0.47;;
10216;SDS011;5152;59.674;16.838;2023-02-28T02:32:57;0.30;;;0.30;;
10216;SDS011;5152;59.674;16.838;2023-02-28T02:35:31;0.30;;;0.30;;
10216;SDS011;5152;59.674;16.838;2023-02-28T02:38:04;1.37;;;0.50;;
10216;SDS011;5152;59.674;16.838;2023-02-28T02:40:35;0.77;;;0.50;;
10216;SDS011;5152;59.674;16.838;2023-02-28T02:43:06;1.30;;;0.50;;
10216;SDS011;5152;59.674;16.838;2023-02-28T02:45:35;0.70;;;0.60;;
10216;SDS011;5152;59.674;16.838;2023-02-28T02:48:05;0.30;;;0.30;;
10216;SDS011;5152;59.674;16.838;2023-02-28T02:50:34;0.40;;;0.40;;
10216;SDS011;5152;59.674;16.838;2023-02-28T02:53:03;1.17;;;0.37;;
10216;SDS011;5152;59.674;16.838;2023-02-28T02:55:31;0.50;;;0.50;;
10216;SDS011;5152;59.674;16.838;2023-02-28T02:58:01;0.50;;;0.50;;
10216;SDS011;5152;59.674;16.838;2023-02-28T03:00:30;0.40;;;0.40;;
10216;SDS011;5152;59.674;16.838;2023-02-28T03:02:59;1.07;;;0.57;;
10216;SDS011;5152;59.674;16.838;2023-02-28T03:05:28;0.40;;;0.40;;
10216;SDS011;5152;59.674;16.838;2023-02-28T03:07:59;0.70;;;0.67;;
10216;SDS011;5152;59.674;16.838;2023-02-28T03:10:31;0.50;;;0.40;;
10216;SDS011;5152;59.674;16.838;2023-02-28T03:13:03;0.33;;;0.33;;
10216;SDS011;5152;59.674;16.838;2023-02-28T03:15:40;0.70;;;0.60;;
10216;SDS011;5152;59.674;16.838;2023-02-28T03:18:15;0.63;;;0.63;;
10216;SDS011;5152;59.674;16.838;2023-02-28T03:20:49;0.70;;;0.70;;
10216;SDS011;5152;59.674;16.838;2023-02-28T03:23:23;0.63;;;0.57;;
10216;SDS011;5152;59.674;16.838;2023-02-28T03:25:59;0.77;;;0.60;;
10216;SDS011;5152;59.674;16.838;2023-02-28T03:28:31;0.57;;;0.47;;
10216;SDS011;5152;59.674;16.838;2023-02-28T03:31:01;0.40;;;0.30;;
10216;SDS011;5152;59.674;16.838;2023-02-28T03:33:31;0.97;;;0.50;;
10216;SDS011;5152;59.674;16.838;2023-02-28T03:36:02;1.60;;;0.30;;
10216;SDS011;5152;59.674;16.838;2023-02-28T03:38:33;0.40;;;0.40;;
10216;SDS011;5152;59.674;16.838;2023-02-28T03:41:02;0.30;;;0.30;;
10216;SDS011;5152;59.674;16.838;2023-02-28T03:43:32;0.57;;;0.50;;
10216;SDS011;5152;59.674;16.838;2023-02-28T03:46:02;0.30;;;0.30;;
10216;SDS011;5152;59.674;16.838;2023-02-28T03:48:32;0.60;;;0.40;;
10216;SDS011;5152;59.674;16.838;2023-02-28T03:51:04;0.40;;;0.40;;
10216;SDS011;5152;59.674;16.838;2023-02-28T03:53:35;0.87;;;0.40;;
10216;SDS011;5152;59.674;16.838;2023-02-28T03:56:03;0.40;;;0.40;;
10216;SDS011;5152;59.674;16.838;2023-02-28T03:58:35;1.37;;;0.43;;
10216;SDS011;5152;59.674;16.838;2023-02-28T04:01:06;0.33;;;0.33;;
10216;SDS011;5152;59.674;16.838;2023-02-28T04:03:35;0.63;;;0.40;;
10216;SDS011;5152;59.674;16.838;2023-02-28T04:06:02;0.63;;;0.50;;
10216;SDS011;5152;59.674;16.838;2023-02-28T04:08:29;0.20;;;0.20;;
10216;SDS011;5152;59.674;16.838;2023-02-28T04:10:57;0.20;;;0.20;;
10216;SDS011;5152;59.674;16.838;2023-02-28T04:13:27;0.37;;;0.37;;
10216;SDS011;5152;59.674;16.838;2023-02-28T04:15:53;0.37;;;0.37;;
10216;SDS011;5152;59.674;16.838;2023-02-28T04:18:20;1.13;;;0.40;;
10216;SDS011;5152;59.674;16.838;2023-02-28T04:20:47;0.30;;;0.30;;
10216;SDS011;5152;59.674;16.838;2023-02-28T04:23:14;0.40;;;0.40;;
10216;SDS011;5152;59.674;16.838;2023-02-28T04:25:40;0.40;;;0.37;;
10216;SDS011;5152;59.674;16.838;2023-02-28T04:28:09;0.20;;;0.20;;
10216;SDS011;5152;59.674;16.838;2023-02-28T04:30:37;0.30;;;0.30;;
10216;SDS011;5152;59.674;16.838;2023-02-28T04:33:04;0.30;;;0.30;;
10216;SDS011;5152;59.674;16.838;2023-02-28T04:35:31;0.47;;;0.47;;
10216;SDS011;5152;59.674;16.838;2023-02-28T04:37:57;0.30;;;0.30;;
10216;SDS011;5152;59.674;16.838;2023-02-28T04:40:24;0.30;;;0.30;;
10216;SDS011;5152;59.674;16.838;2023-02-28T04:42:51;0.70;;;0.30;;
10216;SDS011;5152;59.674;16.838;2023-02-28T04:45:19;0.30;;;0.30;;
10216;SDS011;5152;59.674;16.838;2023-02-28T04:47:46;0.37;;;0.33;;
10216;SDS011;5152;59.674;16.838;2023-02-28T04:50:12;0.30;;;0.30;;
10216;SDS011;5152;59.674;16.838;2023-02-28T04:52:39;0.30;;;0.30;;
10216;SDS011;5152;59.674;16.838;2023-02-28T04:55:06;0.47;;;0.47;;
10216;SDS011;5152;59.674;16.838;2023-02-28T04:57:33;0.50;;;0.50;;
10216;SDS011;5152;59.674;16.838;2023-02-28T05:00:00;0.50;;;0.40;;
10216;SDS011;5152;59.674;16.838;2023-02-28T05:02:35;0.80;;;0.70;;
10216;SDS011;5152;59.674;16.838;2023-02-28T05:05:01;0.50;;;0.50;;
10216;SDS011;5152;59.674;16.838;2023-02-28T05:07:28;0.30;;;0.30;;
10216;SDS011;5152;59.674;16.838;2023-02-28T05:09:55;0.53;;;0.47;;
10216;SDS011;5152;59.674;16.838;2023-02-28T05:12:22;0.37;;;0.37;;
10216;SDS011;5152;59.674;16.838;2023-02-28T05:14:48;0.60;;;0.40;;
10216;SDS011;5152;59.674;16.838;2023-02-28T05:17:15;0.50;;;0.37;;
10216;SDS011;5152;59.674;16.838;2023-02-28T05:19:43;0.93;;;0.53;;
10216;SDS011;5152;59.674;16.838;2023-02-28T05:22:12;0.90;;;0.40;;
10216;SDS011;5152;59.674;16.838;2023-02-28T05:24:40;0.80;;;0.40;;
10216;SDS011;5152;59.674;16.838;2023-02-28T05:27:07;0.93;;;0.50;;
10216;SDS011;5152;59.674;16.838;2023-02-28T05:29:34;0.20;;;0.20;;
10216;SDS011;5152;59.674;16.838;2023-02-28T05:32:06;0.50;;;0.40;;
10216;SDS011;5152;59.674;16.838;2023-02-28T05:34:34;0.90;;;0.40;;
10216;SDS011;5152;59.674;16.838;2023-02-28T05:37:02;0.57;;;0.57;;
10216;SDS011;5152;59.674;16.838;2023-02-28T05:39:28;0.40;;;0.37;;
10216;SDS011;5152;59.674;16.838;2023-02-28T05:41:55;0.90;;;0.50;;
10216;SDS011;5152;59.674;16.838;2023-02-28T05:44:22;0.57;;;0.40;;
10216;SDS011;5152;59.674;16.838;2023-02-28T05:46:50;2.30;;;0.70;;
10216;SDS011;5152;59.674;16.838;2023-02-28T05:49:16;0.73;;;0.30;;
10216;SDS011;5152;59.674;16.838;2023-02-28T05:51:43;0.50;;;0.50;;
10216;SDS011;5152;59.674;16.838;2023-02-28T05:54:11;0.50;;;0.30;;
10216;SDS011;5152;59.674;16.838;2023-02-28T05:56:38;1.30;;;0.50;;
10216;SDS011;5152;59.674;16.838;2023-02-28T05:59:05;1.03;;;0.50;;
10216;SDS011;5152;59.674;16.838;2023-02-28T06:01:33;0.90;;;0.40;;
10216;SDS011;5152;59.674;16.838;2023-02-28T06:04:02;1.77;;;0.57;;
10216;SDS011;5152;59.674;16.838;2023-02-28T06:06:29;1.93;;;0.67;;
10216;SDS011;5152;59.674;16.838;2023-02-28T06:08:56;0.90;;;0.80;;
10216;SDS011;5152;59.674;16.838;2023-02-28T06:11:24;0.80;;;0.80;;
10216;SDS011;5152;59.674;16.838;2023-02-28T06:13:52;1.87;;;0.87;;
10216;SDS011;5152;59.674;16.838;2023-02-28T06:16:20;1.70;;;1.27;;
10216;SDS011;5152;59.674;16.838;2023-02-28T06:18:46;1.57;;;1.27;;
10216;SDS011;5152;59.674;16.838;2023-02-28T06:21:13;1.70;;;1.40;;
10216;SDS011;5152;59.674;16.838;2023-02-28T06:23:40;1.43;;;1.33;;
10216;SDS011;5152;59.674;16.838;2023-02-28T06:26:06;1.93;;;1.73;;
10216;SDS011;5152;59.674;16.838;2023-02-28T06:28:35;3.13;;;2.10;;
10216;SDS011;5152;59.674;16.838;2023-02-28T06:31:05;3.53;;;2.37;;
10216;SDS011;5152;59.674;16.838;2023-02-28T06:33:32;1.33;;;1.20;;
10216;SDS011;5152;59.674;16.838;2023-02-28T06:35:59;3.47;;;2.77;;
10216;SDS011;5152;59.674;16.838;2023-02-28T06:38:26;2.10;;;1.90;;
10216;SDS011;5152;59.674;16.838;2023-02-28T06:40:53;4.67;;;3.07;;
10216;SDS011;5152;59.674;16.838;2023-02-28T06:43:20;4.27;;;3.10;;
10216;SDS011;5152;59.674;16.838;2023-02-28T06:45:48;4.83;;;3.07;;
10216;SDS011;5152;59.674;16.838;2023-02-28T06:48:15;4.57;;;3.10;;
10216;SDS011;5152;59.674;16.838;2023-02-28T06:50:42;1.30;;;0.87;;
10216;SDS011;5152;59.674;16.838;2023-02-28T06:53:09;3.83;;;2.60;;
10216;SDS011;5152;59.674;16.838;2023-02-28T06:55:37;5.27;;;3.60;;
10216;SDS011;5152;59.674;16.838;2023-02-28T06:58:05;3.43;;;2.80;;
10216;SDS011;5152;59.674;16.838;2023-02-28T07:00:39;2.43;;;1.70;;
10216;SDS011;5152;59.674;16.838;2023-02-28T07:03:08;3.77;;;2.90;;
10216;SDS011;5152;59.674;16.838;2023-02-28T07:05:35;3.87;;;2.87;;
10216;SDS011;5152;59.674;16.838;2023-02-28T07:08:02;3.43;;;2.90;;
10216;SDS011;5152;59.674;16.838;2023-02-28T07:10:29;3.43;;;3.00;;
10216;SDS011;5152;59.674;16.838;2023-02-28T07:12:56;1.93;;;1.77;;
10216;SDS011;5152;59.674;16.838;2023-02-28T07:15:22;4.63;;;2.87;;
10216;SDS011;5152;59.674;16.838;2023-02-28T07:17:49;3.60;;;2.80;;
10216;SDS011;5152;59.674;16.838;2023-02-28T07:20:17;3.20;;;2.90;;
10216;SDS011;5152;59.674;16.838;2023-02-28T07:22:44;3.10;;;2.40;;
10216;SDS011;5152;59.674;16.838;2023-02-28T07:25:12;3.70;;;3.10;;
10216;SDS011;5152;59.674;16.838;2023-02-28T07:27:39;3.10;;;2.80;;
10216;SDS011;5152;59.674;16.838;2023-02-28T07:30:07;1.27;;;1.10;;
10216;SDS011;5152;59.674;16.838;2023-02-28T07:32:34;3.50;;;2.60;;
10216;SDS011;5152;59.674;16.838;2023-02-28T07:35:03;1.20;;;1.10;;
10216;SDS011;5152;59.674;16.838;2023-02-28T07:37:31;2.80;;;2.30;;
10216;SDS011;5152;59.674;16.838;2023-02-28T07:40:01;1.57;;;1.40;;
10216;SDS011;5152;59.674;16.838;2023-02-28T07:42:31;3.10;;;2.40;;
10216;SDS011;5152;59.674;16.838;2023-02-28T07:44:58;3.53;;;2.57;;
10216;SDS011;5152;59.674;16.838;2023-02-28T07:47:25;1.47;;;1.37;;
10216;SDS011;5152;59.674;16.838;2023-02-28T07:49:51;2.47;;;2.27;;
10216;SDS011;5152;59.674;16.838;2023-02-28T07:52:18;4.20;;;2.20;;
10216;SDS011;5152;59.674;16.838;2023-02-28T07:54:47;1.40;;;1.30;;
10216;SDS011;5152;59.674;16.838;2023-02-28T07:57:13;2.60;;;2.13;;
10216;SDS011;5152;59.674;16.838;2023-02-28T07:59:41;3.23;;;1.90;;
10216;SDS011;5152;59.674;16.838;2023-02-28T08:02:08;1.90;;;1.80;;
10216;SDS011;5152;59.674;16.838;2023-02-28T08:04:37;2.60;;;1.90;;
10216;SDS011;5152;59.674;16.838;2023-02-28T08:07:04;2.20;;;1.93;;
10216;SDS011;5152;59.674;16.838;2023-02-28T08:09:30;2.37;;;1.80;;
10216;SDS011;5152;59.674;16.838;2023-02-28T08:11:58;2.63;;;1.77;;
10216;SDS011;5152;59.674;16.838;2023-02-28T08:14:25;2.30;;;1.57;;
10216;SDS011;5152;59.674;16.838;2023-02-28T08:16:52;1.40;;;1.07;;
10216;SDS011;5152;59.674;16.838;2023-02-28T08:19:19;3.50;;;1.80;;
10216;SDS011;5152;59.674;16.838;2023-02-28T08:21:46;1.33;;;1.23;;
10216;SDS011;5152;59.674;16.838;2023-02-28T08:24:13;1.97;;;1.80;;
10216;SDS011;5152;59.674;16.838;2023-02-28T08:26:39;1.90;;;1.70;;
10216;SDS011;5152;59.674;16.838;2023-02-28T08:29:08;2.00;;;1.80;;
10216;SDS011;5152;59.674;16.838;2023-02-28T08:31:34;1.97;;;1.03;;
10216;SDS011;5152;59.674;16.838;2023-02-28T08:34:04;1.10;;;0.97;;
10216;SDS011;5152;59.674;16.838;2023-02-28T08:36:31;1.60;;;1.50;;
10216;SDS011;5152;59.674;16.838;2023-02-28T08:38:58;3.50;;;1.50;;
10216;SDS011;5152;59.674;16.838;2023-02-28T08:41:25;2.10;;;1.70;;
10216;SDS011;5152;59.674;16.838;2023-02-28T08:43:52;1.77;;;1.57;;
10216;SDS011;5152;59.674;16.838;2023-02-28T08:46:21;1.40;;;1.30;;
10216;SDS011;5152;59.674;16.838;2023-02-28T08:48:51;1.00;;;0.90;;
10216;SDS011;5152;59.674;16.838;2023-02-28T08:51:19;1.00;;;0.93;;
10216;SDS011;5152;59.674;16.838;2023-02-28T08:53:51;1.30;;;1.20;;
10216;SDS011;5152;59.674;16.838;2023-02-28T08:56:18;1.40;;;1.30;;
10216;SDS011;5152;59.674;16.838;2023-02-28T08:58:46;1.30;;;1.20;;
10216;SDS011;5152;59.674;16.838;2023-02-28T09:01:15;1.43;;;1.30;;
10216;SDS011;5152;59.674;16.838;2023-02-28T09:03:44;2.50;;;1.27;;
10216;SDS011;5152;59.674;16.838;2023-02-28T09:06:12;1.67;;;1.33;;
10216;SDS011;5152;59.674;16.838;2023-02-28T09:08:40;1.80;;;1.20;;
10216;SDS011;5152;59.674;16.838;2023-02-28T09:11:07;0.87;;;0.87;;
10216;SDS011;5152;59.674;16.838;2023-02-28T09:13:34;1.23;;;1.13;;
10216;SDS011;5152;59.674;16.838;2023-02-28T09:16:02;1.80;;;0.73;;
10216;SDS011;5152;59.674;16.838;2023-02-28T09:18:30;1.13;;;1.03;;
10216;SDS011;5152;59.674;16.838;2023-02-28T09:20:58;0.83;;;0.73;;
10216;SDS011;5152;59.674;16.838;2023-02-28T09:23:25;0.57;;;0.57;;
10216;SDS011;5152;59.674;16.838;2023-02-28T09:25:59;1.47;;;1.07;;
10216;SDS011;5152;59.674;16.838;2023-02-28T09:28:26;0.60;;;0.60;;
10216;SDS011;5152;59.674;16.838;2023-02-28T09:30:53;0.73;;;0.57;;
10216;SDS011;5152;59.674;16.838;2023-02-28T09:33:24;0.33;;;0.33;;
10216;SDS011;5152;59.674;16.838;2023-02-28T09:35:58;1.33;;;0.93;;
10216;SDS011;5152;59.674;16.838;2023-02-28T09:38:25;1.70;;;0.80;;
10216;SDS011;5152;59.674;16.838;2023-02-28T09:40:53;0.20;;;0.20;;
10216;SDS011;5152;59.674;16.838;2023-02-28T09:43:23;1.20;;;0.80;;
10216;SDS011;5152;59.674;16.838;2023-02-28T09:45:52;1.00;;;0.90;;
10216;SDS011;5152;59.674;16.838;2023-02-28T09:48:26;1.57;;;1.00;;
10216;SDS011;5152;59.674;16.838;2023-02-28T09:50:59;1.43;;;0.90;;
10216;SDS011;5152;59.674;16.838;2023-02-28T09:53:28;0.50;;;0.50;;
10216;SDS011;5152;59.674;16.838;2023-02-28T09:55:59;0.70;;;0.70;;
10216;SDS011;5152;59.674;16.838;2023-02-28T09:58:28;0.70;;;0.70;;
10216;SDS011;5152;59.674;16.838;2023-02-28T10:00:59;0.50;;;0.50;;
10216;SDS011;5152;59.674;16.838;2023-02-28T10:03:31;0.60;;;0.60;;
10216;SDS011;5152;59.674;16.838;2023-02-28T10:06:01;1.37;;;0.90;;
10216;SDS011;5152;59.674;16.838;2023-02-28T10:08:36;1.07;;;0.80;;
10216;SDS011;5152;59.674;16.838;2023-02-28T10:11:07;1.90;;;1.00;;
10216;SDS011;5152;59.674;16.838;2023-02-28T10:13:39;1.10;;;0.70;;
10216;SDS011;5152;59.674;16.838;2023-02-28T10:16:10;0.80;;;0.80;;
10216;SDS011;5152;59.674;16.838;2023-02-28T10:18:40;0.63;;;0.63;;
10216;SDS011;5152;59.674;16.838;2023-02-28T10:21:11;1.07;;;0.50;;
10216;SDS011;5152;59.674;16.838;2023-02-28T10:23:44;0.80;;;0.70;;
10216;SDS011;5152;59.674;16.838;2023-02-28T10:26:13;0.70;;;0.70;;
10216;SDS011;5152;59.674;16.838;2023-02-28T10:28:41;0.83;;;0.70;;
10216;SDS011;5152;59.674;16.838;2023-02-28T10:31:08;0.30;;;0.30;;
10216;SDS011;5152;59.674;16.838;2023-02-28T10:33:36;0.30;;;0.20;;
10216;SDS011;5152;59.674;16.838;2023-02-28T10:36:05;0.83;;;0.50;;
10216;SDS011;5152;59.674;16.838;2023-02-28T10:38:34;0.77;;;0.67;;
10216;SDS011;5152;59.674;16.838;2023-02-28T10:41:06;0.53;;;0.53;;
10216;SDS011;5152;59.674;16.838;2023-02-28T10:43:33;1.13;;;0.70;;
10216;SDS011;5152;59.674;16.838;2023-02-28T10:46:02;0.50;;;0.50;;
10216;SDS011;5152;59.674;16.838;2023-02-28T10:48:32;1.10;;;0.60;;
10216;SDS011;5152;59.674;16.838;2023-02-28T10:51:00;2.53;;;0.80;;
10216;SDS011;5152;59.674;16.838;2023-02-28T10:53:30;1.80;;;0.40;;
10216;SDS011;5152;59.674;16.838;2023-02-28T10:56:03;1.20;;;0.50;;
10216;SDS011;5152;59.674;16.838;2023-02-28T10:58:33;1.47;;;0.70;;
10216;SDS011;5152;59.674;16.838;2023-02-28T11:01:12;0.40;;;0.40;;
10216;SDS011;5152;59.674;16.838;2023-02-28T11:03:40;1.47;;;0.90;;
10216;SDS011;5152;59.674;16.838;2023-02-28T11:06:07;1.20;;;0.90;;
10216;SDS011;5152;59.674;16.838;2023-02-28T11:08:44;0.67;;;0.50;;
10216;SDS011;5152;59.674;16.838;2023-02-28T11:11:13;0.63;;;0.27;;
10216;SDS011;5152;59.674;16.838;2023-02-28T11:13:42;0.97;;;0.60;;
10216;SDS011;5152;59.674;16.838;2023-02-28T11:16:11;0.63;;;0.60;;
10216;SDS011;5152;59.674;16.838;2023-02-28T11:18:40;1.40;;;0.40;;
10216;SDS011;5152;59.674;16.838;2023-02-28T11:21:08;0.63;;;0.50;;
10216;SDS011;5152;59.674;16.838;2023-02-28T11:23:36;0.77;;;0.40;;
10216;SDS011;5152;59.674;16.838;2023-02-28T11:26:08;0.40;;;0.33;;
10216;SDS011;5152;59.674;16.838;2023-02-28T11:28:36;0.77;;;0.53;;
10216;SDS011;5152;59.674;16.838;2023-02-28T11:33:47;0.40;;;0.40;;
10216;SDS011;5152;59.674;16.838;2023-02-28T11:36:17;0.50;;;0.50;;
10216;SDS011;5152;59.674;16.838;2023-02-28T11:38:45;0.27;;;0.10;;
10216;SDS011;5152;59.674;16.838;2023-02-28T11:44:17;0.97;;;0.77;;
10216;SDS011;5152;59.674;16.838;2023-02-28T11:46:56;0.83;;;0.80;;
10216;SDS011;5152;59.674;16.838;2023-02-28T11:49:30;0.73;;;0.50;;
10216;SDS011;5152;59.674;16.838;2023-02-28T11:52:01;1.87;;;0.70;;
10216;SDS011;5152;59.674;16.838;2023-02-28T11:54:37;1.23;;;0.30;;
10216;SDS011;5152;59.674;16.838;2023-02-28T11:57:32;0.93;;;0.50;;
10216;SDS011;5152;59.674;16.838;2023-02-28T12:00:03;1.97;;;1.07;;
10216;SDS011;5152;59.674;16.838;2023-02-28T12:02:36;1.30;;;0.60;;
10216;SDS011;5152;59.674;16.838;2023-02-28T12:05:17;0.97;;;0.73;;
10216;SDS011;5152;59.674;16.838;2023-02-28T12:07:51;1.40;;;0.30;;
10216;SDS011;5152;59.674;16.838;2023-02-28T12:10:24;2.50;;;0.90;;
10216;SDS011;5152;59.674;16.838;2023-02-28T12:12:57;0.97;;;0.43;;
10216;SDS011;5152;59.674;16.838;2023-02-28T12:15:49;1.73;;;0.70;;
10216;SDS011;5152;59.674;16.838;2023-02-28T12:18:37;1.10;;;0.70;;
10216;SDS011;5152;59.674;16.838;2023-02-28T12:21:14;3.63;;;0.53;;
10216;SDS011;5152;59.674;16.838;2023-02-28T12:23:48;1.63;;;0.77;;
10216;SDS011;5152;59.674;16.838;2023-02-28T12:26:22;1.17;;;0.73;;
10216;SDS011;5152;59.674;16.838;2023-02-28T12:28:57;1.73;;;0.80;;
10216;SDS011;5152;59.674;16.838;2023-02-28T12:31:28;2.20;;;0.80;;
10216;SDS011;5152;59.674;16.838;2023-02-28T12:36:40;1.70;;;0.90;;
10216;SDS011;5152;59.674;16.838;2023-02-28T12:39:08;1.63;;;0.87;;
10216;SDS011;5152;59.674;16.838;2023-02-28T12:41:39;0.80;;;0.60;;
10216;SDS011;5152;59.674;16.838;2023-02-28T12:44:11;1.40;;;0.67;;
10216;SDS011;5152;59.674;16.838;2023-02-28T12:46:40;2.40;;;0.90;;
10216;SDS011;5152;59.674;16.838;2023-02-28T12:49:09;0.73;;;0.70;;
10216;SDS011;5152;59.674;16.838;2023-02-28T12:51:38;3.17;;;0.87;;
10216;SDS011;5152;59.674;16.838;2023-02-28T12:54:09;0.93;;;0.90;;
10216;SDS011;5152;59.674;16.838;2023-02-28T12:56:42;5.17;;;1.27;;
10216;SDS011;5152;59.674;16.838;2023-02-28T12:59:14;0.67;;;0.67;;
10216;SDS011;5152;59.674;16.838;2023-02-28T13:01:53;1.57;;;1.00;;
10216;SDS011;5152;59.674;16.838;2023-02-28T13:04:34;2.00;;;0.73;;
10216;SDS011;5152;59.674;16.838;2023-02-28T13:07:13;1.13;;;0.60;;
10216;SDS011;5152;59.674;16.838;2023-02-28T13:09:56;1.03;;;0.73;;
10216;SDS011;5152;59.674;16.838;2023-02-28T13:12:24;0.30;;;0.30;;
10216;SDS011;5152;59.674;16.838;2023-02-28T13:14:59;0.80;;;0.70;;
10216;SDS011;5152;59.674;16.838;2023-02-28T13:17:38;1.80;;;0.90;;
10216;SDS011;5152;59.674;16.838;2023-02-28T13:20:13;1.17;;;0.63;;
10216;SDS011;5152;59.674;16.838;2023-02-28T13:22:42;1.07;;;0.60;;
10216;SDS011;5152;59.674;16.838;2023-02-28T13:31:19;0.20;;;0.20;;
10216;SDS011;5152;59.674;16.838;2023-02-28T13:36:32;1.80;;;0.80;;
10216;SDS011;5152;59.674;16.838;2023-02-28T13:39:02;0.70;;;0.70;;
10216;SDS011;5152;59.674;16.838;2023-02-28T13:44:21;0.83;;;0.67;;
10216;SDS011;5152;59.674;16.838;2023-02-28T13:49:46;0.97;;;0.80;;
10216;SDS011;5152;59.674;16.838;2023-02-28T13:52:15;0.67;;;0.50;;
10216;SDS011;5152;59.674;16.838;2023-02-28T13:54:49;0.60;;;0.57;;
10216;SDS011;5152;59.674;16.838;2023-02-28T13:57:23;0.97;;;0.70;;
10216;SDS011;5152;59.674;16.838;2023-02-28T13:59:59;2.17;;;0.50;;
10216;SDS011;5152;59.674;16.838;2023-02-28T14:02:45;0.80;;;0.70;;
10216;SDS011;5152;59.674;16.838;2023-02-28T14:05:20;2.23;;;0.93;;
10216;SDS011;5152;59.674;16.838;2023-02-28T14:07:52;0.63;;;0.53;;
10216;SDS011;5152;59.674;16.838;2023-02-28T14:10:22;1.23;;;0.80;;
10216;SDS011;5152;59.674;16.838;2023-02-28T14:12:54;0.50;;;0.50;;
10216;SDS011;5152;59.674;16.838;2023-02-28T14:18:16;0.70;;;0.63;;
10216;SDS011;5152;59.674;16.838;2023-02-28T14:20:46;0.70;;;0.70;;
10216;SDS011;5152;59.674;16.838;2023-02-28T14:23:16;1.10;;;0.83;;
10216;SDS011;5152;59.674;16.838;2023-02-28T14:25:59;0.53;;;0.53;;
10216;SDS011;5152;59.674;16.838;2023-02-28T14:28:36;0.70;;;0.50;;
10216;SDS011;5152;59.674;16.838;2023-02-28T14:31:12;0.83;;;0.40;;
10216;SDS011;5152;59.674;16.838;2023-02-28T14:33:59;1.00;;;0.90;;
10216;SDS011;5152;59.674;16.838;2023-02-28T14:36:31;0.90;;;0.53;;
10216;SDS011;5152;59.674;16.838;2023-02-28T14:38:59;1.40;;;0.80;;
10216;SDS011;5152;59.674;16.838;2023-02-28T14:41:29;2.83;;;0.40;;
10216;SDS011;5152;59.674;16.838;2023-02-28T14:44:00;0.77;;;0.53;;
10216;SDS011;5152;59.674;16.838;2023-02-28T14:46:30;0.27;;;0.27;;
10216;SDS011;5152;59.674;16.838;2023-02-28T14:49:04;0.60;;;0.60;;
10216;SDS011;5152;59.674;16.838;2023-02-28T14:51:32;1.40;;;0.80;;
10216;SDS011;5152;59.674;16.838;2023-02-28T14:53:59;1.13;;;0.50;;
10216;SDS011;5152;59.674;16.838;2023-02-28T14:56:27;0.83;;;0.50;;
10216;SDS011;5152;59.674;16.838;2023-02-28T14:58:57;1.53;;;0.60;;
10216;SDS011;5152;59.674;16.838;2023-02-28T15:01:24;0.60;;;0.60;;
10216;SDS011;5152;59.674;16.838;2023-02-28T15:03:57;1.80;;;0.70;;
10216;SDS011;5152;59.674;16.838;2023-02-28T15:06:27;0.30;;;0.30;;
10216;SDS011;5152;59.674;16.838;2023-02-28T15:09:07;0.30;;;0.30;;
10216;SDS011;5152;59.674;16.838;2023-02-28T15:11:40;1.90;;;0.60;;
10216;SDS011;5152;59.674;16.838;2023-02-28T15:14:13;0.20;;;0.20;;
10216;SDS011;5152;59.674;16.838;2023-02-28T15:16:41;0.57;;;0.50;;
10216;SDS011;5152;59.674;16.838;2023-02-28T15:19:12;0.53;;;0.53;;
10216;SDS011;5152;59.674;16.838;2023-02-28T15:21:43;0.50;;;0.50;;
10216;SDS011;5152;59.674;16.838;2023-02-28T15:24:12;0.43;;;0.33;;
10216;SDS011;5152;59.674;16.838;2023-02-28T15:26:52;1.90;;;0.63;;
10216;SDS011;5152;59.674;16.838;2023-02-28T15:29:21;0.83;;;0.60;;